sensor_id;sensor_type;location;lat;lon;timestamp;P1;durP1;ratioP1;P2;durP2;ratioP2
15114;SDS011;7658;51.456;7.622;2022-12-18T00:01:24;36.63;;;25.30;;
15114;SDS011;7658;51.456;7.622;2022-12-18T00:03:56;34.00;;;27.00;;
15114;SDS011;7658;51.456;7.622;2022-12-18T00:06:23;33.93;;;26.77;;
15114;SDS011;7658;51.456;7.622;2022-12-18T00:08:50;38.97;;;28.37;;
15114;SDS011;7658;51.456;7.622;2022-12-18T00:11:16;33.03;;;27.60;;
15114;SDS011;7658;51.456;7.622;2022-12-18T00:13:44;39.87;;;28.37;;
15114;SDS011;7658;51.456;7.622;2022-12-18T00:16:11;40.70;;;29.83;;
15114;SDS011;7658;51.456;7.622;2022-12-18T00:18:39;33.90;;;28.77;;
15114;SDS011;7658;51.456;7.622;2022-12-18T00:21:06;31.57;;;26.33;;
15114;SDS011;7658;51.456;7.622;2022-12-18T00:23:34;37.97;;;27.07;;
15114;SDS011;7658;51.456;7.622;2022-12-18T00:26:03;32.47;;;25.73;;
15114;SDS011;7658;51.456;7.622;2022-12-18T00:28:31;36.97;;;28.57;;
15114;SDS011;7658;51.456;7.622;2022-12-18T00:31:04;41.57;;;28.87;;
15114;SDS011;7658;51.456;7.622;2022-12-18T00:33:30;47.33;;;33.07;;
15114;SDS011;7658;51.456;7.622;2022-12-18T00:36:03;41.10;;;28.63;;
15114;SDS011;7658;51.456;7.622;2022-12-18T00:38:30;32.97;;;27.67;;
15114;SDS011;7658;51.456;7.622;2022-12-18T00:40:56;39.93;;;28.50;;
15114;SDS011;7658;51.456;7.622;2022-12-18T00:43:22;28.73;;;25.83;;
15114;SDS011;7658;51.456;7.622;2022-12-18T00:45:48;37.17;;;29.10;;
15114;SDS011;7658;51.456;7.622;2022-12-18T00:48:13;40.47;;;29.07;;
15114;SDS011;7658;51.456;7.622;2022-12-18T00:50:39;38.57;;;29.27;;
15114;SDS011;7658;51.456;7.622;2022-12-18T00:53:05;49.87;;;32.07;;
15114;SDS011;7658;51.456;7.622;2022-12-18T00:55:31;41.93;;;28.67;;
15114;SDS011;7658;51.456;7.622;2022-12-18T00:57:57;37.30;;;27.73;;
15114;SDS011;7658;51.456;7.622;2022-12-18T01:00:23;48.03;;;32.30;;
15114;SDS011;7658;51.456;7.622;2022-12-18T01:02:48;45.50;;;34.10;;
15114;SDS011;7658;51.456;7.622;2022-12-18T01:05:14;32.50;;;26.90;;
15114;SDS011;7658;51.456;7.622;2022-12-18T01:07:40;38.37;;;28.03;;
15114;SDS011;7658;51.456;7.622;2022-12-18T01:10:07;32.87;;;26.50;;
15114;SDS011;7658;51.456;7.622;2022-12-18T01:12:34;31.47;;;26.20;;
15114;SDS011;7658;51.456;7.622;2022-12-18T01:15:00;38.33;;;28.87;;
15114;SDS011;7658;51.456;7.622;2022-12-18T01:17:26;34.83;;;25.87;;
15114;SDS011;7658;51.456;7.622;2022-12-18T01:19:51;34.70;;;27.80;;
15114;SDS011;7658;51.456;7.622;2022-12-18T01:22:17;38.20;;;26.30;;
15114;SDS011;7658;51.456;7.622;2022-12-18T01:24:43;41.97;;;27.83;;
15114;SDS011;7658;51.456;7.622;2022-12-18T01:27:08;36.73;;;28.53;;
15114;SDS011;7658;51.456;7.622;2022-12-18T01:29:34;32.17;;;28.67;;
15114;SDS011;7658;51.456;7.622;2022-12-18T01:32:00;33.23;;;27.20;;
15114;SDS011;7658;51.456;7.622;2022-12-18T01:34:26;38.03;;;29.37;;
15114;SDS011;7658;51.456;7.622;2022-12-18T01:36:51;35.40;;;28.37;;
15114;SDS011;7658;51.456;7.622;2022-12-18T01:39:17;31.20;;;25.90;;
15114;SDS011;7658;51.456;7.622;2022-12-18T01:41:43;28.67;;;25.50;;
15114;SDS011;7658;51.456;7.622;2022-12-18T01:47:15;44.30;;;30.53;;
15114;SDS011;7658;51.456;7.622;2022-12-18T01:49:48;34.90;;;25.53;;
15114;SDS011;7658;51.456;7.622;2022-12-18T01:52:15;34.47;;;26.20;;
15114;SDS011;7658;51.456;7.622;2022-12-18T01:54:43;36.20;;;26.83;;
15114;SDS011;7658;51.456;7.622;2022-12-18T01:57:10;35.67;;;26.67;;
15114;SDS011;7658;51.456;7.622;2022-12-18T01:59:36;34.37;;;26.50;;
15114;SDS011;7658;51.456;7.622;2022-12-18T02:02:03;29.83;;;26.03;;
15114;SDS011;7658;51.456;7.622;2022-12-18T02:04:29;33.13;;;26.83;;
15114;SDS011;7658;51.456;7.622;2022-12-18T02:07:14;33.97;;;28.50;;
15114;SDS011;7658;51.456;7.622;2022-12-18T02:09:51;37.47;;;27.60;;
15114;SDS011;7658;51.456;7.622;2022-12-18T02:12:45;37.67;;;27.40;;
15114;SDS011;7658;51.456;7.622;2022-12-18T02:20:23;34.53;;;26.87;;
15114;SDS011;7658;51.456;7.622;2022-12-18T02:28:49;29.17;;;26.00;;
15114;SDS011;7658;51.456;7.622;2022-12-18T02:31:22;35.83;;;28.10;;
15114;SDS011;7658;51.456;7.622;2022-12-18T02:33:52;36.70;;;27.10;;
15114;SDS011;7658;51.456;7.622;2022-12-18T02:36:21;32.77;;;25.77;;
15114;SDS011;7658;51.456;7.622;2022-12-18T02:38:48;33.90;;;25.93;;
15114;SDS011;7658;51.456;7.622;2022-12-18T02:41:15;29.40;;;24.13;;
15114;SDS011;7658;51.456;7.622;2022-12-18T02:43:46;32.10;;;27.63;;
15114;SDS011;7658;51.456;7.622;2022-12-18T02:49:34;29.97;;;26.03;;
15114;SDS011;7658;51.456;7.622;2022-12-18T02:54:33;28.73;;;25.03;;
15114;SDS011;7658;51.456;7.622;2022-12-18T02:58:09;26.37;;;23.73;;
15114;SDS011;7658;51.456;7.622;2022-12-18T03:00:39;41.23;;;27.57;;
15114;SDS011;7658;51.456;7.622;2022-12-18T03:05:48;28.40;;;23.87;;
15114;SDS011;7658;51.456;7.622;2022-12-18T03:08:22;27.03;;;24.17;;
15114;SDS011;7658;51.456;7.622;2022-12-18T03:11:09;27.20;;;24.07;;
15114;SDS011;7658;51.456;7.622;2022-12-18T03:13:46;30.67;;;25.60;;
15114;SDS011;7658;51.456;7.622;2022-12-18T03:16:18;28.43;;;25.37;;
15114;SDS011;7658;51.456;7.622;2022-12-18T03:19:27;26.47;;;23.87;;
15114;SDS011;7658;51.456;7.622;2022-12-18T03:21:47;27.67;;;24.77;;
15114;SDS011;7658;51.456;7.622;2022-12-18T03:24:17;34.33;;;25.13;;
15114;SDS011;7658;51.456;7.622;2022-12-18T03:26:45;25.57;;;23.10;;
15114;SDS011;7658;51.456;7.622;2022-12-18T03:29:16;27.50;;;24.20;;
15114;SDS011;7658;51.456;7.622;2022-12-18T03:31:47;27.57;;;23.77;;
15114;SDS011;7658;51.456;7.622;2022-12-18T03:34:23;27.00;;;23.47;;
15114;SDS011;7658;51.456;7.622;2022-12-18T03:36:56;26.00;;;23.30;;
15114;SDS011;7658;51.456;7.622;2022-12-18T03:39:22;29.43;;;23.10;;
15114;SDS011;7658;51.456;7.622;2022-12-18T03:41:54;29.30;;;23.87;;
15114;SDS011;7658;51.456;7.622;2022-12-18T03:44:28;32.10;;;26.23;;
15114;SDS011;7658;51.456;7.622;2022-12-18T03:47:13;27.47;;;24.80;;
15114;SDS011;7658;51.456;7.622;2022-12-18T03:49:57;26.87;;;23.20;;
15114;SDS011;7658;51.456;7.622;2022-12-18T03:52:45;27.27;;;24.33;;
15114;SDS011;7658;51.456;7.622;2022-12-18T03:55:27;27.23;;;23.53;;
15114;SDS011;7658;51.456;7.622;2022-12-18T03:57:57;33.20;;;23.00;;
15114;SDS011;7658;51.456;7.622;2022-12-18T04:00:24;24.77;;;22.47;;
15114;SDS011;7658;51.456;7.622;2022-12-18T04:02:51;27.30;;;23.80;;
15114;SDS011;7658;51.456;7.622;2022-12-18T04:05:19;25.57;;;22.40;;
15114;SDS011;7658;51.456;7.622;2022-12-18T04:07:47;27.90;;;23.97;;
15114;SDS011;7658;51.456;7.622;2022-12-18T04:10:15;25.70;;;23.00;;
15114;SDS011;7658;51.456;7.622;2022-12-18T04:12:41;27.53;;;22.60;;
15114;SDS011;7658;51.456;7.622;2022-12-18T04:15:08;24.20;;;21.93;;
15114;SDS011;7658;51.456;7.622;2022-12-18T04:17:35;25.73;;;23.13;;
15114;SDS011;7658;51.456;7.622;2022-12-18T04:20:00;27.77;;;23.33;;
15114;SDS011;7658;51.456;7.622;2022-12-18T04:22:26;28.07;;;25.23;;
15114;SDS011;7658;51.456;7.622;2022-12-18T04:24:52;28.17;;;22.33;;
15114;SDS011;7658;51.456;7.622;2022-12-18T04:27:18;25.40;;;22.97;;
15114;SDS011;7658;51.456;7.622;2022-12-18T04:29:44;24.63;;;22.07;;
15114;SDS011;7658;51.456;7.622;2022-12-18T04:32:09;24.30;;;22.03;;
15114;SDS011;7658;51.456;7.622;2022-12-18T04:34:35;26.00;;;23.40;;
15114;SDS011;7658;51.456;7.622;2022-12-18T04:37:01;30.17;;;24.50;;
15114;SDS011;7658;51.456;7.622;2022-12-18T04:39:27;28.10;;;22.63;;
15114;SDS011;7658;51.456;7.622;2022-12-18T04:41:53;26.10;;;23.23;;
15114;SDS011;7658;51.456;7.622;2022-12-18T04:44:20;28.20;;;24.13;;
15114;SDS011;7658;51.456;7.622;2022-12-18T04:46:46;28.20;;;24.47;;
15114;SDS011;7658;51.456;7.622;2022-12-18T04:49:12;26.03;;;23.73;;
15114;SDS011;7658;51.456;7.622;2022-12-18T04:51:37;29.77;;;23.57;;
15114;SDS011;7658;51.456;7.622;2022-12-18T04:54:04;30.70;;;23.60;;
15114;SDS011;7658;51.456;7.622;2022-12-18T04:56:31;25.20;;;22.63;;
15114;SDS011;7658;51.456;7.622;2022-12-18T04:58:57;24.03;;;21.80;;
15114;SDS011;7658;51.456;7.622;2022-12-18T05:01:22;24.37;;;21.80;;
15114;SDS011;7658;51.456;7.622;2022-12-18T05:03:48;23.77;;;21.80;;
15114;SDS011;7658;51.456;7.622;2022-12-18T05:06:16;26.00;;;22.73;;
15114;SDS011;7658;51.456;7.622;2022-12-18T05:08:41;24.50;;;22.00;;
15114;SDS011;7658;51.456;7.622;2022-12-18T05:11:08;23.60;;;21.13;;
15114;SDS011;7658;51.456;7.622;2022-12-18T05:13:36;24.37;;;22.23;;
15114;SDS011;7658;51.456;7.622;2022-12-18T05:16:03;23.43;;;21.17;;
15114;SDS011;7658;51.456;7.622;2022-12-18T05:18:30;23.30;;;21.07;;
15114;SDS011;7658;51.456;7.622;2022-12-18T05:20:56;24.77;;;22.37;;
15114;SDS011;7658;51.456;7.622;2022-12-18T05:23:22;22.53;;;20.53;;
15114;SDS011;7658;51.456;7.622;2022-12-18T05:25:52;29.83;;;22.83;;
15114;SDS011;7658;51.456;7.622;2022-12-18T05:28:24;24.27;;;21.87;;
15114;SDS011;7658;51.456;7.622;2022-12-18T05:30:53;22.97;;;20.97;;
15114;SDS011;7658;51.456;7.622;2022-12-18T05:33:21;25.10;;;21.93;;
15114;SDS011;7658;51.456;7.622;2022-12-18T05:35:52;24.30;;;22.17;;
15114;SDS011;7658;51.456;7.622;2022-12-18T05:38:22;24.67;;;22.37;;
15114;SDS011;7658;51.456;7.622;2022-12-18T05:40:49;23.37;;;21.03;;
15114;SDS011;7658;51.456;7.622;2022-12-18T05:43:16;22.23;;;20.03;;
15114;SDS011;7658;51.456;7.622;2022-12-18T05:45:42;24.63;;;22.23;;
15114;SDS011;7658;51.456;7.622;2022-12-18T05:48:08;23.13;;;21.23;;
15114;SDS011;7658;51.456;7.622;2022-12-18T05:50:35;22.80;;;20.70;;
15114;SDS011;7658;51.456;7.622;2022-12-18T05:53:05;24.17;;;22.13;;
15114;SDS011;7658;51.456;7.622;2022-12-18T05:55:34;22.67;;;20.33;;
15114;SDS011;7658;51.456;7.622;2022-12-18T05:58:01;21.60;;;19.87;;
15114;SDS011;7658;51.456;7.622;2022-12-18T06:00:28;22.10;;;19.80;;
15114;SDS011;7658;51.456;7.622;2022-12-18T06:02:55;22.50;;;20.23;;
15114;SDS011;7658;51.456;7.622;2022-12-18T06:05:21;23.10;;;20.73;;
15114;SDS011;7658;51.456;7.622;2022-12-18T06:07:46;25.47;;;23.10;;
15114;SDS011;7658;51.456;7.622;2022-12-18T06:10:12;22.70;;;20.50;;
15114;SDS011;7658;51.456;7.622;2022-12-18T06:12:38;23.33;;;21.13;;
15114;SDS011;7658;51.456;7.622;2022-12-18T06:15:04;24.57;;;21.70;;
15114;SDS011;7658;51.456;7.622;2022-12-18T06:17:30;21.93;;;20.20;;
15114;SDS011;7658;51.456;7.622;2022-12-18T06:19:56;20.73;;;19.13;;
15114;SDS011;7658;51.456;7.622;2022-12-18T06:22:22;23.17;;;20.93;;
15114;SDS011;7658;51.456;7.622;2022-12-18T06:24:48;21.67;;;19.70;;
15114;SDS011;7658;51.456;7.622;2022-12-18T06:27:14;21.80;;;20.10;;
15114;SDS011;7658;51.456;7.622;2022-12-18T06:29:40;20.67;;;19.10;;
15114;SDS011;7658;51.456;7.622;2022-12-18T06:32:05;23.37;;;21.10;;
15114;SDS011;7658;51.456;7.622;2022-12-18T06:34:31;23.37;;;21.27;;
15114;SDS011;7658;51.456;7.622;2022-12-18T06:36:58;25.40;;;21.47;;
15114;SDS011;7658;51.456;7.622;2022-12-18T06:39:24;23.13;;;21.23;;
15114;SDS011;7658;51.456;7.622;2022-12-18T06:41:52;23.67;;;21.50;;
15114;SDS011;7658;51.456;7.622;2022-12-18T06:44:17;21.57;;;19.80;;
15114;SDS011;7658;51.456;7.622;2022-12-18T06:46:43;21.53;;;19.47;;
15114;SDS011;7658;51.456;7.622;2022-12-18T06:49:09;20.80;;;19.00;;
15114;SDS011;7658;51.456;7.622;2022-12-18T06:51:35;21.00;;;18.77;;
15114;SDS011;7658;51.456;7.622;2022-12-18T06:54:01;22.40;;;20.27;;
15114;SDS011;7658;51.456;7.622;2022-12-18T06:56:27;22.43;;;20.53;;
15114;SDS011;7658;51.456;7.622;2022-12-18T06:58:53;21.67;;;19.73;;
15114;SDS011;7658;51.456;7.622;2022-12-18T07:01:20;21.50;;;19.60;;
15114;SDS011;7658;51.456;7.622;2022-12-18T07:03:46;22.33;;;20.33;;
15114;SDS011;7658;51.456;7.622;2022-12-18T07:06:16;22.03;;;20.27;;
15114;SDS011;7658;51.456;7.622;2022-12-18T07:08:44;22.27;;;20.23;;
15114;SDS011;7658;51.456;7.622;2022-12-18T07:11:11;23.00;;;20.63;;
15114;SDS011;7658;51.456;7.622;2022-12-18T07:13:37;22.60;;;20.50;;
15114;SDS011;7658;51.456;7.622;2022-12-18T07:16:10;22.47;;;20.47;;
15114;SDS011;7658;51.456;7.622;2022-12-18T07:18:42;21.30;;;19.70;;
15114;SDS011;7658;51.456;7.622;2022-12-18T07:21:09;20.90;;;19.37;;
15114;SDS011;7658;51.456;7.622;2022-12-18T07:23:39;21.07;;;19.47;;
15114;SDS011;7658;51.456;7.622;2022-12-18T07:26:09;22.03;;;20.33;;
15114;SDS011;7658;51.456;7.622;2022-12-18T07:28:39;23.00;;;21.30;;
15114;SDS011;7658;51.456;7.622;2022-12-18T07:31:06;22.87;;;21.07;;
15114;SDS011;7658;51.456;7.622;2022-12-18T07:33:33;24.17;;;22.10;;
15114;SDS011;7658;51.456;7.622;2022-12-18T07:36:03;25.07;;;22.47;;
15114;SDS011;7658;51.456;7.622;2022-12-18T07:38:30;21.83;;;19.70;;
15114;SDS011;7658;51.456;7.622;2022-12-18T07:41:00;26.00;;;23.37;;
15114;SDS011;7658;51.456;7.622;2022-12-18T07:43:27;25.73;;;22.87;;
15114;SDS011;7658;51.456;7.622;2022-12-18T07:45:53;24.47;;;22.20;;
15114;SDS011;7658;51.456;7.622;2022-12-18T07:48:19;24.17;;;21.97;;
15114;SDS011;7658;51.456;7.622;2022-12-18T07:50:45;23.27;;;20.97;;
15114;SDS011;7658;51.456;7.622;2022-12-18T07:53:10;23.97;;;21.97;;
15114;SDS011;7658;51.456;7.622;2022-12-18T07:55:36;27.07;;;24.67;;
15114;SDS011;7658;51.456;7.622;2022-12-18T07:58:02;25.70;;;23.30;;
15114;SDS011;7658;51.456;7.622;2022-12-18T08:00:29;25.90;;;23.43;;
15114;SDS011;7658;51.456;7.622;2022-12-18T08:02:56;28.10;;;24.73;;
15114;SDS011;7658;51.456;7.622;2022-12-18T08:05:22;23.87;;;21.73;;
15114;SDS011;7658;51.456;7.622;2022-12-18T08:07:48;25.27;;;22.83;;
15114;SDS011;7658;51.456;7.622;2022-12-18T08:10:14;24.50;;;22.03;;
15114;SDS011;7658;51.456;7.622;2022-12-18T08:12:40;21.83;;;20.03;;
15114;SDS011;7658;51.456;7.622;2022-12-18T08:15:06;21.27;;;19.23;;
15114;SDS011;7658;51.456;7.622;2022-12-18T08:17:32;21.00;;;19.23;;
15114;SDS011;7658;51.456;7.622;2022-12-18T08:19:57;21.77;;;19.80;;
15114;SDS011;7658;51.456;7.622;2022-12-18T08:22:23;34.27;;;30.73;;
15114;SDS011;7658;51.456;7.622;2022-12-18T08:24:49;24.20;;;21.97;;
15114;SDS011;7658;51.456;7.622;2022-12-18T08:27:15;24.87;;;22.47;;
15114;SDS011;7658;51.456;7.622;2022-12-18T08:29:41;32.43;;;25.53;;
15114;SDS011;7658;51.456;7.622;2022-12-18T08:32:07;31.80;;;25.70;;
15114;SDS011;7658;51.456;7.622;2022-12-18T08:34:32;27.70;;;24.33;;
15114;SDS011;7658;51.456;7.622;2022-12-18T08:36:58;25.07;;;22.50;;
15114;SDS011;7658;51.456;7.622;2022-12-18T08:39:24;22.53;;;20.57;;
15114;SDS011;7658;51.456;7.622;2022-12-18T08:41:50;22.67;;;20.00;;
15114;SDS011;7658;51.456;7.622;2022-12-18T08:44:34;21.50;;;19.70;;
15114;SDS011;7658;51.456;7.622;2022-12-18T08:47:02;20.23;;;18.73;;
15114;SDS011;7658;51.456;7.622;2022-12-18T08:49:28;22.27;;;19.97;;
15114;SDS011;7658;51.456;7.622;2022-12-18T08:51:55;21.37;;;19.40;;
15114;SDS011;7658;51.456;7.622;2022-12-18T08:54:22;21.80;;;19.80;;
15114;SDS011;7658;51.456;7.622;2022-12-18T08:56:49;23.37;;;20.93;;
15114;SDS011;7658;51.456;7.622;2022-12-18T08:59:15;21.50;;;19.57;;
15114;SDS011;7658;51.456;7.622;2022-12-18T09:01:41;20.70;;;18.93;;
15114;SDS011;7658;51.456;7.622;2022-12-18T09:04:08;21.60;;;19.63;;
15114;SDS011;7658;51.456;7.622;2022-12-18T09:06:34;19.47;;;17.87;;
15114;SDS011;7658;51.456;7.622;2022-12-18T09:09:01;22.27;;;20.17;;
15114;SDS011;7658;51.456;7.622;2022-12-18T09:11:28;24.10;;;20.90;;
15114;SDS011;7658;51.456;7.622;2022-12-18T09:13:54;21.83;;;19.77;;
15114;SDS011;7658;51.456;7.622;2022-12-18T09:16:21;20.70;;;18.57;;
15114;SDS011;7658;51.456;7.622;2022-12-18T09:18:47;20.87;;;18.67;;
15114;SDS011;7658;51.456;7.622;2022-12-18T09:21:14;20.17;;;18.03;;
15114;SDS011;7658;51.456;7.622;2022-12-18T09:23:41;18.87;;;17.33;;
15114;SDS011;7658;51.456;7.622;2022-12-18T09:26:08;18.90;;;17.13;;
15114;SDS011;7658;51.456;7.622;2022-12-18T09:28:34;17.93;;;16.43;;
15114;SDS011;7658;51.456;7.622;2022-12-18T09:31:03;16.67;;;15.30;;
15114;SDS011;7658;51.456;7.622;2022-12-18T09:33:31;17.93;;;16.43;;
15114;SDS011;7658;51.456;7.622;2022-12-18T09:35:56;18.60;;;17.00;;
15114;SDS011;7658;51.456;7.622;2022-12-18T09:38:22;16.73;;;15.53;;
15114;SDS011;7658;51.456;7.622;2022-12-18T09:40:51;17.23;;;15.93;;
15114;SDS011;7658;51.456;7.622;2022-12-18T09:43:24;17.03;;;15.50;;
15114;SDS011;7658;51.456;7.622;2022-12-18T09:45:56;16.83;;;15.50;;
15114;SDS011;7658;51.456;7.622;2022-12-18T09:48:32;16.60;;;15.10;;
15114;SDS011;7658;51.456;7.622;2022-12-18T09:51:17;15.63;;;14.37;;
15114;SDS011;7658;51.456;7.622;2022-12-18T09:53:47;14.80;;;13.70;;
15114;SDS011;7658;51.456;7.622;2022-12-18T09:56:19;14.47;;;13.43;;
15114;SDS011;7658;51.456;7.622;2022-12-18T10:01:26;14.90;;;13.80;;
15114;SDS011;7658;51.456;7.622;2022-12-18T10:03:53;14.93;;;13.73;;
15114;SDS011;7658;51.456;7.622;2022-12-18T10:25:15;13.90;;;12.80;;
15114;SDS011;7658;51.456;7.622;2022-12-18T10:27:47;13.87;;;12.87;;
15114;SDS011;7658;51.456;7.622;2022-12-18T10:30:18;13.50;;;12.47;;
15114;SDS011;7658;51.456;7.622;2022-12-18T10:32:46;13.60;;;12.60;;
15114;SDS011;7658;51.456;7.622;2022-12-18T10:35:23;13.10;;;12.27;;
15114;SDS011;7658;51.456;7.622;2022-12-18T10:43:54;12.60;;;11.90;;
15114;SDS011;7658;51.456;7.622;2022-12-18T10:46:46;13.93;;;12.80;;
15114;SDS011;7658;51.456;7.622;2022-12-18T10:49:22;14.37;;;13.33;;
15114;SDS011;7658;51.456;7.622;2022-12-18T10:52:04;15.37;;;14.17;;
15114;SDS011;7658;51.456;7.622;2022-12-18T10:54:45;14.47;;;13.30;;
15114;SDS011;7658;51.456;7.622;2022-12-18T10:57:14;13.47;;;12.40;;
15114;SDS011;7658;51.456;7.622;2022-12-18T10:59:55;13.70;;;12.57;;
15114;SDS011;7658;51.456;7.622;2022-12-18T11:04:53;12.97;;;12.13;;
15114;SDS011;7658;51.456;7.622;2022-12-18T11:07:19;13.00;;;12.10;;
15114;SDS011;7658;51.456;7.622;2022-12-18T11:09:45;14.20;;;13.10;;
15114;SDS011;7658;51.456;7.622;2022-12-18T11:12:25;13.97;;;12.83;;
15114;SDS011;7658;51.456;7.622;2022-12-18T11:14:54;13.50;;;12.60;;
15114;SDS011;7658;51.456;7.622;2022-12-18T11:17:29;14.30;;;13.13;;
15114;SDS011;7658;51.456;7.622;2022-12-18T11:20:14;14.77;;;13.37;;
15114;SDS011;7658;51.456;7.622;2022-12-18T11:23:05;13.07;;;12.07;;
15114;SDS011;7658;51.456;7.622;2022-12-18T11:25:38;13.27;;;12.17;;
15114;SDS011;7658;51.456;7.622;2022-12-18T11:36:59;14.77;;;13.37;;
15114;SDS011;7658;51.456;7.622;2022-12-18T11:39:33;13.53;;;12.43;;
15114;SDS011;7658;51.456;7.622;2022-12-18T11:42:48;14.40;;;12.77;;
15114;SDS011;7658;51.456;7.622;2022-12-18T11:47:51;13.47;;;12.17;;
15114;SDS011;7658;51.456;7.622;2022-12-18T11:53:01;14.60;;;13.20;;
15114;SDS011;7658;51.456;7.622;2022-12-18T11:55:36;20.33;;;16.53;;
15114;SDS011;7658;51.456;7.622;2022-12-18T12:01:16;13.53;;;12.40;;
15114;SDS011;7658;51.456;7.622;2022-12-18T12:09:12;12.90;;;11.90;;
15114;SDS011;7658;51.456;7.622;2022-12-18T12:14:47;12.47;;;11.47;;
15114;SDS011;7658;51.456;7.622;2022-12-18T12:20:07;12.27;;;11.37;;
15114;SDS011;7658;51.456;7.622;2022-12-18T12:22:40;12.43;;;11.53;;
15114;SDS011;7658;51.456;7.622;2022-12-18T12:25:32;14.07;;;12.97;;
15114;SDS011;7658;51.456;7.622;2022-12-18T12:30:54;13.73;;;12.67;;
15114;SDS011;7658;51.456;7.622;2022-12-18T12:39:01;12.20;;;11.30;;
15114;SDS011;7658;51.456;7.622;2022-12-18T12:41:31;13.23;;;12.13;;
15114;SDS011;7658;51.456;7.622;2022-12-18T12:44:19;12.40;;;11.40;;
15114;SDS011;7658;51.456;7.622;2022-12-18T12:46:52;12.17;;;11.17;;
15114;SDS011;7658;51.456;7.622;2022-12-18T12:49:26;11.57;;;10.67;;
15114;SDS011;7658;51.456;7.622;2022-12-18T12:51:57;12.10;;;11.20;;
15114;SDS011;7658;51.456;7.622;2022-12-18T12:54:31;12.40;;;11.57;;
15114;SDS011;7658;51.456;7.622;2022-12-18T12:57:12;12.53;;;11.63;;
15114;SDS011;7658;51.456;7.622;2022-12-18T13:00:04;11.83;;;11.03;;
15114;SDS011;7658;51.456;7.622;2022-12-18T13:05:28;12.23;;;11.23;;
15114;SDS011;7658;51.456;7.622;2022-12-18T13:10:56;11.80;;;10.90;;
15114;SDS011;7658;51.456;7.622;2022-12-18T13:13:49;12.30;;;11.27;;
15114;SDS011;7658;51.456;7.622;2022-12-18T13:16:20;13.00;;;11.90;;
15114;SDS011;7658;51.456;7.622;2022-12-18T13:18:54;12.80;;;11.77;;
15114;SDS011;7658;51.456;7.622;2022-12-18T13:21:28;12.07;;;11.17;;
15114;SDS011;7658;51.456;7.622;2022-12-18T13:23:56;13.63;;;12.50;;
15114;SDS011;7658;51.456;7.622;2022-12-18T13:26:38;12.80;;;11.70;;
15114;SDS011;7658;51.456;7.622;2022-12-18T13:29:04;13.70;;;12.50;;
15114;SDS011;7658;51.456;7.622;2022-12-18T13:36:43;14.27;;;12.77;;
15114;SDS011;7658;51.456;7.622;2022-12-18T13:41:47;14.60;;;13.10;;
15114;SDS011;7658;51.456;7.622;2022-12-18T13:46:58;13.57;;;12.40;;
15114;SDS011;7658;51.456;7.622;2022-12-18T13:49:36;13.83;;;12.43;;
15114;SDS011;7658;51.456;7.622;2022-12-18T13:52:16;17.13;;;15.37;;
15114;SDS011;7658;51.456;7.622;2022-12-18T13:54:47;15.73;;;14.13;;
15114;SDS011;7658;51.456;7.622;2022-12-18T13:57:25;27.23;;;19.13;;
15114;SDS011;7658;51.456;7.622;2022-12-18T13:59:51;19.00;;;17.00;;
15114;SDS011;7658;51.456;7.622;2022-12-18T14:02:19;18.40;;;16.37;;
15114;SDS011;7658;51.456;7.622;2022-12-18T14:04:48;23.33;;;19.47;;
15114;SDS011;7658;51.456;7.622;2022-12-18T14:07:24;16.33;;;14.67;;
15114;SDS011;7658;51.456;7.622;2022-12-18T14:09:56;18.43;;;16.07;;
15114;SDS011;7658;51.456;7.622;2022-12-18T14:12:25;14.23;;;12.97;;
15114;SDS011;7658;51.456;7.622;2022-12-18T14:17:55;12.97;;;11.73;;
15114;SDS011;7658;51.456;7.622;2022-12-18T14:20:43;13.30;;;12.07;;
15114;SDS011;7658;51.456;7.622;2022-12-18T14:26:00;14.07;;;12.87;;
15114;SDS011;7658;51.456;7.622;2022-12-18T14:28:28;13.60;;;12.23;;
15114;SDS011;7658;51.456;7.622;2022-12-18T14:30:54;13.80;;;12.33;;
15114;SDS011;7658;51.456;7.622;2022-12-18T14:33:21;13.20;;;11.90;;
15114;SDS011;7658;51.456;7.622;2022-12-18T14:38:39;13.90;;;12.53;;
15114;SDS011;7658;51.456;7.622;2022-12-18T14:41:06;14.73;;;13.27;;
15114;SDS011;7658;51.456;7.622;2022-12-18T14:43:43;14.07;;;12.67;;
15114;SDS011;7658;51.456;7.622;2022-12-18T14:46:32;13.80;;;12.60;;
15114;SDS011;7658;51.456;7.622;2022-12-18T14:49:24;13.77;;;12.40;;
15114;SDS011;7658;51.456;7.622;2022-12-18T14:51:56;14.43;;;12.93;;
15114;SDS011;7658;51.456;7.622;2022-12-18T14:54:29;13.27;;;12.07;;
15114;SDS011;7658;51.456;7.622;2022-12-18T14:59:51;13.10;;;12.00;;
15114;SDS011;7658;51.456;7.622;2022-12-18T15:02:27;14.37;;;12.97;;
15114;SDS011;7658;51.456;7.622;2022-12-18T15:05:04;16.23;;;14.07;;
15114;SDS011;7658;51.456;7.622;2022-12-18T15:07:40;24.90;;;17.70;;
15114;SDS011;7658;51.456;7.622;2022-12-18T15:13:05;17.37;;;15.03;;
15114;SDS011;7658;51.456;7.622;2022-12-18T15:18:03;15.53;;;13.87;;
15114;SDS011;7658;51.456;7.622;2022-12-18T15:26:13;16.50;;;14.10;;
15114;SDS011;7658;51.456;7.622;2022-12-18T15:28:56;16.03;;;14.43;;
15114;SDS011;7658;51.456;7.622;2022-12-18T15:31:28;15.97;;;14.27;;
15114;SDS011;7658;51.456;7.622;2022-12-18T15:36:33;15.53;;;13.93;;
15114;SDS011;7658;51.456;7.622;2022-12-18T15:39:02;14.93;;;13.63;;
15114;SDS011;7658;51.456;7.622;2022-12-18T15:41:28;14.87;;;13.30;;
15114;SDS011;7658;51.456;7.622;2022-12-18T15:43:57;14.87;;;13.40;;
15114;SDS011;7658;51.456;7.622;2022-12-18T15:46:24;19.80;;;13.13;;
15114;SDS011;7658;51.456;7.622;2022-12-18T15:48:55;15.50;;;13.90;;
15114;SDS011;7658;51.456;7.622;2022-12-18T15:53:50;18.60;;;15.50;;
15114;SDS011;7658;51.456;7.622;2022-12-18T15:56:19;18.73;;;15.47;;
15114;SDS011;7658;51.456;7.622;2022-12-18T15:59:07;15.40;;;13.87;;
15114;SDS011;7658;51.456;7.622;2022-12-18T16:01:41;18.87;;;15.67;;
15114;SDS011;7658;51.456;7.622;2022-12-18T16:04:13;16.67;;;15.00;;
15114;SDS011;7658;51.456;7.622;2022-12-18T16:06:41;19.77;;;16.30;;
15114;SDS011;7658;51.456;7.622;2022-12-18T16:09:07;20.23;;;16.50;;
15114;SDS011;7658;51.456;7.622;2022-12-18T16:11:34;20.87;;;16.97;;
15114;SDS011;7658;51.456;7.622;2022-12-18T16:16:46;19.00;;;15.30;;
15114;SDS011;7658;51.456;7.622;2022-12-18T16:19:17;17.13;;;15.37;;
15114;SDS011;7658;51.456;7.622;2022-12-18T16:21:43;19.63;;;15.80;;
15114;SDS011;7658;51.456;7.622;2022-12-18T16:24:27;19.57;;;16.53;;
15114;SDS011;7658;51.456;7.622;2022-12-18T16:26:56;19.30;;;16.20;;
15114;SDS011;7658;51.456;7.622;2022-12-18T16:29:24;20.77;;;16.40;;
15114;SDS011;7658;51.456;7.622;2022-12-18T16:31:52;18.67;;;16.07;;
15114;SDS011;7658;51.456;7.622;2022-12-18T16:34:26;20.47;;;16.57;;
15114;SDS011;7658;51.456;7.622;2022-12-18T16:36:53;18.73;;;16.30;;
15114;SDS011;7658;51.456;7.622;2022-12-18T16:39:20;19.97;;;16.00;;
15114;SDS011;7658;51.456;7.622;2022-12-18T16:41:46;19.57;;;16.33;;
15114;SDS011;7658;51.456;7.622;2022-12-18T16:44:12;19.17;;;16.37;;
15114;SDS011;7658;51.456;7.622;2022-12-18T16:46:39;19.40;;;16.90;;
15114;SDS011;7658;51.456;7.622;2022-12-18T16:49:08;18.70;;;16.70;;
15114;SDS011;7658;51.456;7.622;2022-12-18T16:51:35;21.30;;;16.83;;
15114;SDS011;7658;51.456;7.622;2022-12-18T16:54:00;21.80;;;18.03;;
15114;SDS011;7658;51.456;7.622;2022-12-18T16:56:26;19.73;;;16.93;;
15114;SDS011;7658;51.456;7.622;2022-12-18T16:58:53;25.63;;;17.37;;
15114;SDS011;7658;51.456;7.622;2022-12-18T17:01:20;21.33;;;17.33;;
15114;SDS011;7658;51.456;7.622;2022-12-18T17:03:52;22.13;;;17.80;;
15114;SDS011;7658;51.456;7.622;2022-12-18T17:06:20;24.50;;;18.13;;